Adair, Missouri
Current Conditions -  °F | °C
As of 12:26 PM on Sunday 23 Nov 2014 (Local Time) from KIRK Reporting Station
Light Rain Light Rain  
Wind Chill: 54°   Ceiling: 500
Heat Index: 54°   Visibility: 2.5mi
Dew Point: 53°   Wind: 10mph
Humidity: 97%   Direction: 180°S
Pressure: 29.42"   Gusts: NA
Location:  40.2186°N, 92.4328°W
Report Text: KIRK 231826Z AUTO 18009KT 2 1/2SM -RA BR OVC005 12/12 A2942 RMK AO2 P0003 T01220117
Loading
Personal Weather Stations






























Interactive Weather Map New forecast layout! Learn more

10-Day Weather Forecast

Advertisements
Track Severe Weather on mobile